Main page
METAR-TAF:

METAR-TAF

Airports :

Léopold Sédar Senghor International Airport

Dakar, Senegal

latitude: 14-44N, longitude: 017-30W, elevation: 27 m

Current weather observation

The report was made 49 minutes ago, at 07:00 UTC
Calm wind
Temperature 25°C
Humidity 100%
Pressure 1013 hPa
Visibility 10 km or more
Few clouds at a height of 1300 ft

METAR: GOOY 180700Z 00000KT 9999 FEW013 25/25 Q1013

Time: 07:49 (07:49 UTC)

Forecast

The report was made 2 hours and 19 minutes ago, at 05:30 UTC
Forecast valid from 18 at 06 UTC to 19 at 12 UTC
Wind 8 kt from the Southwest
Visibility: 8000 m
Scattered clouds at a height of 1300 ft

TAF: GOOY 180530Z 1806/1912 22008KT 8000 SCT013

Weather observations and forecasts of more than 4000 airports (METAR and TAF reports).

The available stations are represented by yellow and red dots on the map.

Hover mouse over dot to see the name of the station.

Then click to see weather observations and forecasts.

To change the map : click on the green buttons with a black cross to zoom in, on the green button with a dash to zoom out, or on the green arrows for adjacent maps.


METAR-TAF: